Time;durP1;ratioP1;P1;durP2;ratioP2;P2;SDS_P1;SDS_P2;PMS_P1;PMS_P2;Temp;Humidity;BMP_temperature;BMP_pressure;BME280_temperature;BME280_humidity;BME280_pressure;Samples;Min_cycle;Max_cycle;Signal;HPM_P1;HPM_P2
2022/07/27 00:02:03;;;;;;;;;;;18.40;95.40;;;;;;5095046;28;20321;-50
2022/07/27 00:04:29;;;;;;;;;;;18.30;95.80;;;;;;5095536;28;19916;-51
2022/07/27 00:06:54;;;;;;;;;;;18.20;95.90;;;;;;5075408;28;20284;-48
2022/07/27 00:09:21;;;;;;;;;;;18.20;95.90;;;;;;5089038;28;19912;-48
2022/07/27 00:11:46;;;;;;;;;;;18.20;96.00;;;;;;5093369;28;19916;-50
2022/07/27 00:14:12;;;;;;;;;;;18.20;95.70;;;;;;5095826;28;20337;-49
2022/07/27 00:16:37;;;;;;;;;;;18.20;95.50;;;;;;5076872;28;19942;-52
2022/07/27 00:19:03;;;;;;;;;;;18.20;95.50;;;;;;5074316;28;19920;-46
2022/07/27 00:21:28;;;;;;;;;;;18.20;95.20;;;;;;5094216;28;19912;-47
2022/07/27 00:23:54;;;;;;;;;;;18.30;95.40;;;;;;5090145;28;19912;-49
2022/07/27 00:26:20;;;;;;;;;;;18.30;94.90;;;;;;5088452;28;19993;-56
2022/07/27 00:28:45;;;;;;;;;;;18.20;94.60;;;;;;5086494;28;19920;-50
2022/07/27 00:31:11;;;;;;;;;;;18.20;94.70;;;;;;5090469;28;19908;-47
2022/07/27 00:33:36;;;;;;;;;;;18.10;94.70;;;;;;5094750;28;19912;-47
2022/07/27 00:36:02;;;;;;;;;;;18.20;94.40;;;;;;5094451;28;19927;-48
2022/07/27 00:38:28;;;;;;;;;;;18.20;94.50;;;;;;5095282;28;19908;-52
2022/07/27 00:40:53;;;;;;;;;;;18.20;94.20;;;;;;5074277;28;19995;-50
2022/07/27 00:43:19;;;;;;;;;;;18.20;94.10;;;;;;5075656;28;19927;-49
2022/07/27 00:45:45;;;;;;;;;;;18.30;93.70;;;;;;5083848;28;19981;-47
2022/07/27 00:48:10;;;;;;;;;;;18.20;93.80;;;;;;5089296;28;20366;-48
2022/07/27 00:50:37;;;;;;;;;;;18.20;93.70;;;;;;5073244;28;19924;-53
2022/07/27 00:53:03;;;;;;;;;;;18.10;93.30;;;;;;5073452;28;19951;-53
2022/07/27 00:55:31;;;;;;;;;;;18.10;93.60;;;;;;5092930;28;19912;-50
2022/07/27 00:57:56;;;;;;;;;;;18.10;93.60;;;;;;5085798;28;20010;-51
2022/07/27 01:00:22;;;;;;;;;;;18.00;93.50;;;;;;5092252;28;19970;-49
2022/07/27 01:02:47;;;;;;;;;;;18.00;93.60;;;;;;5092956;28;19920;-49
2022/07/27 01:05:13;;;;;;;;;;;18.00;93.70;;;;;;5088864;28;19912;-49
2022/07/27 01:07:38;;;;;;;;;;;18.00;93.60;;;;;;5086844;28;19939;-53
2022/07/27 01:10:04;;;;;;;;;;;18.10;93.30;;;;;;5086181;28;20049;-50
2022/07/27 01:12:31;;;;;;;;;;;18.10;93.20;;;;;;5091551;28;19924;-50
2022/07/27 01:14:57;;;;;;;;;;;18.20;93.00;;;;;;5075362;28;19960;-48
2022/07/27 01:17:23;;;;;;;;;;;18.10;92.90;;;;;;5086247;28;20461;-48
2022/07/27 01:19:48;;;;;;;;;;;18.00;93.00;;;;;;5085214;28;19909;-46
2022/07/27 01:22:14;;;;;;;;;;;18.00;92.80;;;;;;5084556;28;19938;-51
2022/07/27 01:24:40;;;;;;;;;;;17.80;93.20;;;;;;5094497;28;19908;-49
2022/07/27 01:27:06;;;;;;;;;;;17.90;93.00;;;;;;5092336;28;19916;-48
2022/07/27 01:29:32;;;;;;;;;;;17.90;93.30;;;;;;5093481;28;19944;-49
2022/07/27 01:31:57;;;;;;;;;;;17.90;93.40;;;;;;5095117;28;19959;-50
2022/07/27 01:34:23;;;;;;;;;;;17.90;93.40;;;;;;5094757;28;19923;-49
2022/07/27 01:36:49;;;;;;;;;;;17.90;93.50;;;;;;5088658;28;20292;-52
2022/07/27 01:39:15;;;;;;;;;;;17.90;93.30;;;;;;5074006;28;19989;-53
2022/07/27 01:41:41;;;;;;;;;;;17.90;93.40;;;;;;5073935;28;19953;-51
2022/07/27 01:44:07;;;;;;;;;;;17.90;93.40;;;;;;5083915;28;20350;-47
2022/07/27 01:46:32;;;;;;;;;;;17.80;93.30;;;;;;5085574;28;19971;-46
2022/07/27 01:48:58;;;;;;;;;;;17.70;93.40;;;;;;5075172;28;19912;-48
2022/07/27 01:51:23;;;;;;;;;;;17.70;93.60;;;;;;5077872;28;19912;-48
2022/07/27 01:53:49;;;;;;;;;;;17.70;93.60;;;;;;5092769;28;19912;-46
2022/07/27 01:56:14;;;;;;;;;;;17.50;93.40;;;;;;5092916;28;19982;-51
2022/07/27 01:58:40;;;;;;;;;;;17.50;93.30;;;;;;5092515;28;20397;-50
2022/07/27 02:01:06;;;;;;;;;;;17.40;93.50;;;;;;5092283;28;19998;-53
2022/07/27 02:03:32;;;;;;;;;;;17.30;93.60;;;;;;5092543;28;19956;-53
2022/07/27 02:05:58;;;;;;;;;;;17.40;93.40;;;;;;5089259;28;20622;-53
2022/07/27 02:08:23;;;;;;;;;;;17.40;93.50;;;;;;5090305;28;19946;-53
2022/07/27 02:13:33;;;;;;;;;;;17.50;93.40;;;;;;5091778;28;19912;-56
2022/07/27 02:15:59;;;;;;;;;;;17.50;93.00;;;;;;5092693;28;19919;-56
2022/07/27 02:18:24;;;;;;;;;;;17.40;93.20;;;;;;5093056;28;19912;-51
2022/07/27 02:20:50;;;;;;;;;;;17.50;93.00;;;;;;5075881;28;20276;-53
2022/07/27 02:23:16;;;;;;;;;;;17.60;92.90;;;;;;5074396;28;20007;-57
2022/07/27 02:25:41;;;;;;;;;;;17.60;92.40;;;;;;5088993;28;19912;-54
2022/07/27 02:28:07;;;;;;;;;;;17.50;92.70;;;;;;5092849;28;20463;-52
2022/07/27 02:30:33;;;;;;;;;;;17.50;92.60;;;;;;5108422;28;20002;-54
2022/07/27 02:32:59;;;;;;;;;;;17.50;92.80;;;;;;5093052;28;19999;-52
2022/07/27 02:35:25;;;;;;;;;;;17.60;92.50;;;;;;5091837;28;19924;-53
2022/07/27 02:37:51;;;;;;;;;;;17.60;92.30;;;;;;5092714;28;19912;-52
2022/07/27 02:40:16;;;;;;;;;;;17.60;92.40;;;;;;5076694;28;19919;-57
2022/07/27 02:42:42;;;;;;;;;;;17.60;92.50;;;;;;5072855;28;19916;-54
2022/07/27 02:45:08;;;;;;;;;;;17.70;92.30;;;;;;5075123;28;19913;-56
2022/07/27 02:47:34;;;;;;;;;;;17.80;92.30;;;;;;5087580;28;19919;-56
2022/07/27 02:50:02;;;;;;;;;;;17.90;92.20;;;;;;5085549;28;20332;-55
2022/07/27 02:52:28;;;;;;;;;;;17.90;92.10;;;;;;5093160;28;19908;-53
2022/07/27 02:54:54;;;;;;;;;;;17.80;91.90;;;;;;5074534;28;19944;-54
2022/07/27 02:57:19;;;;;;;;;;;17.70;91.80;;;;;;5109147;28;19917;-50
2022/07/27 02:59:45;;;;;;;;;;;17.70;92.10;;;;;;5091336;28;19923;-56
2022/07/27 03:02:10;;;;;;;;;;;17.70;92.30;;;;;;5093268;28;19918;-55
2022/07/27 03:04:36;;;;;;;;;;;17.70;92.20;;;;;;5077837;28;19916;-52
2022/07/27 03:07:01;;;;;;;;;;;17.70;92.20;;;;;;5073133;28;19939;-54
2022/07/27 03:09:27;;;;;;;;;;;17.70;92.20;;;;;;5086335;28;20379;-54
2022/07/27 03:11:52;;;;;;;;;;;17.60;92.40;;;;;;5093225;28;19908;-52
2022/07/27 03:14:18;;;;;;;;;;;17.40;92.90;;;;;;5084760;28;19916;-53
2022/07/27 03:16:44;;;;;;;;;;;17.20;93.40;;;;;;5075740;28;19912;-53
2022/07/27 03:19:09;;;;;;;;;;;17.10;93.80;;;;;;5084539;28;19916;-55
2022/07/27 03:21:35;;;;;;;;;;;17.10;93.80;;;;;;5090591;28;20002;-56
2022/07/27 03:24:00;;;;;;;;;;;17.30;93.50;;;;;;5092636;28;19921;-53
2022/07/27 03:26:26;;;;;;;;;;;17.30;93.30;;;;;;5095102;28;19912;-47
2022/07/27 03:28:51;;;;;;;;;;;17.10;93.60;;;;;;5095765;28;19941;-51
2022/07/27 03:31:17;;;;;;;;;;;17.10;93.70;;;;;;5096355;28;19915;-53
2022/07/27 03:33:42;;;;;;;;;;;17.10;93.60;;;;;;5094048;28;19923;-52
2022/07/27 03:36:08;;;;;;;;;;;17.10;93.40;;;;;;5092195;28;19923;-54
2022/07/27 03:38:34;;;;;;;;;;;17.10;93.00;;;;;;5094758;28;19916;-56
2022/07/27 03:40:59;;;;;;;;;;;17.00;93.30;;;;;;5094505;28;19913;-51
2022/07/27 03:43:25;;;;;;;;;;;17.10;92.80;;;;;;5089031;28;19919;-53
2022/07/27 03:45:50;;;;;;;;;;;17.10;92.60;;;;;;5082411;28;20394;-56
2022/07/27 03:48:16;;;;;;;;;;;17.10;93.00;;;;;;5079588;28;19916;-48
2022/07/27 03:50:41;;;;;;;;;;;17.20;93.00;;;;;;5093621;28;20372;-53
2022/07/27 03:53:07;;;;;;;;;;;17.20;92.80;;;;;;5090406;28;19923;-47
2022/07/27 03:55:33;;;;;;;;;;;17.30;92.40;;;;;;5094774;28;19919;-50
2022/07/27 03:57:59;;;;;;;;;;;17.30;92.50;;;;;;5093650;28;19921;-46
2022/07/27 04:00:24;;;;;;;;;;;17.10;92.90;;;;;;5096083;28;19912;-49
2022/07/27 04:02:50;;;;;;;;;;;17.10;92.80;;;;;;5095201;28;19922;-54
2022/07/27 04:05:16;;;;;;;;;;;17.10;92.90;;;;;;5095574;28;19952;-55
2022/07/27 04:07:42;;;;;;;;;;;17.00;93.20;;;;;;5089970;28;19990;-52
2022/07/27 04:10:08;;;;;;;;;;;17.00;93.40;;;;;;5090991;28;19915;-50
2022/07/27 04:12:37;;;;;;;;;;;16.90;93.40;;;;;;5093702;28;20356;-50
2022/07/27 04:15:04;;;;;;;;;;;16.90;93.50;;;;;;5095793;28;19919;-52
2022/07/27 04:17:29;;;;;;;;;;;17.00;93.30;;;;;;5094185;28;19942;-51
2022/07/27 04:19:55;;;;;;;;;;;17.00;93.20;;;;;;5075767;28;20571;-45
2022/07/27 04:22:20;;;;;;;;;;;17.00;93.00;;;;;;5075255;28;20368;-52
2022/07/27 04:24:46;;;;;;;;;;;16.90;93.20;;;;;;5074391;28;19912;-55
2022/07/27 04:27:12;;;;;;;;;;;16.80;93.30;;;;;;5076244;28;19920;-47
2022/07/27 04:29:37;;;;;;;;;;;16.80;93.10;;;;;;5093695;28;19919;-45
2022/07/27 04:32:03;;;;;;;;;;;16.80;93.10;;;;;;5092159;28;19915;-52
2022/07/27 04:34:28;;;;;;;;;;;16.90;93.20;;;;;;5073620;28;19921;-45
2022/07/27 04:36:54;;;;;;;;;;;16.90;92.90;;;;;;5074513;28;19920;-52
2022/07/27 04:39:20;;;;;;;;;;;16.70;93.20;;;;;;5075522;28;20391;-47
2022/07/27 04:41:45;;;;;;;;;;;16.80;93.20;;;;;;5086089;28;19912;-52
2022/07/27 04:44:11;;;;;;;;;;;16.90;93.10;;;;;;5083933;28;19931;-51
2022/07/27 04:46:37;;;;;;;;;;;16.90;93.00;;;;;;5093001;28;19922;-46
2022/07/27 04:49:03;;;;;;;;;;;16.90;92.90;;;;;;5091941;28;20280;-51
2022/07/27 04:51:28;;;;;;;;;;;16.70;92.80;;;;;;5092999;28;19912;-46
2022/07/27 04:53:54;;;;;;;;;;;16.60;93.10;;;;;;5085668;28;19912;-56
2022/07/27 04:56:19;;;;;;;;;;;16.70;92.90;;;;;;5075251;28;20410;-46
2022/07/27 04:58:45;;;;;;;;;;;16.70;92.80;;;;;;5090981;28;20375;-53
2022/07/27 05:01:11;;;;;;;;;;;16.50;93.00;;;;;;5092763;28;19913;-49
2022/07/27 05:03:37;;;;;;;;;;;16.50;93.30;;;;;;5093975;28;19915;-53
2022/07/27 05:06:03;;;;;;;;;;;16.50;93.40;;;;;;5072104;28;19917;-55
2022/07/27 05:08:28;;;;;;;;;;;16.50;93.70;;;;;;5089495;28;19961;-49
2022/07/27 05:10:54;;;;;;;;;;;16.50;93.80;;;;;;5090455;28;19916;-56
2022/07/27 05:13:20;;;;;;;;;;;16.60;93.30;;;;;;5093410;28;19916;-53
2022/07/27 05:15:45;;;;;;;;;;;16.60;93.40;;;;;;5092495;28;19930;-56
2022/07/27 05:18:11;;;;;;;;;;;16.60;93.20;;;;;;5092441;28;19912;-53
2022/07/27 05:20:37;;;;;;;;;;;16.70;93.20;;;;;;5093384;28;19952;-54
2022/07/27 05:23:02;;;;;;;;;;;16.80;93.00;;;;;;5081997;28;19924;-54
2022/07/27 05:25:28;;;;;;;;;;;16.70;92.90;;;;;;5081667;28;19916;-52
2022/07/27 05:27:53;;;;;;;;;;;16.70;93.10;;;;;;5092031;28;19954;-49
2022/07/27 05:30:19;;;;;;;;;;;16.60;93.40;;;;;;5087263;28;19912;-54
2022/07/27 05:32:45;;;;;;;;;;;16.60;92.70;;;;;;5090489;28;19912;-53
2022/07/27 05:35:11;;;;;;;;;;;16.60;92.70;;;;;;5090575;28;19931;-50
2022/07/27 05:37:36;;;;;;;;;;;16.60;92.90;;;;;;5093273;28;19912;-54
2022/07/27 05:40:03;;;;;;;;;;;16.60;92.80;;;;;;5089899;28;19926;-53
2022/07/27 05:42:29;;;;;;;;;;;16.70;92.70;;;;;;5072851;28;19912;-49
2022/07/27 05:44:54;;;;;;;;;;;16.70;92.90;;;;;;5087167;28;19912;-51
2022/07/27 05:47:20;;;;;;;;;;;16.70;93.00;;;;;;5091422;28;19954;-50
2022/07/27 05:49:46;;;;;;;;;;;16.70;92.50;;;;;;5088546;28;19971;-54
2022/07/27 05:52:11;;;;;;;;;;;16.60;92.80;;;;;;5092591;28;19912;-54
2022/07/27 05:54:37;;;;;;;;;;;16.70;92.80;;;;;;5090451;28;20435;-54
2022/07/27 06:03:08;;;;;;;;;;;16.50;93.30;;;;;;5089425;28;19908;-50
2022/07/27 06:05:34;;;;;;;;;;;16.50;93.40;;;;;;5090759;28;20443;-56
2022/07/27 06:08:01;;;;;;;;;;;16.50;93.50;;;;;;5090771;28;20260;-57
2022/07/27 06:10:31;;;;;;;;;;;16.70;93.30;;;;;;5081732;28;19916;-57
2022/07/27 06:12:57;;;;;;;;;;;16.50;93.00;;;;;;5072010;28;19912;-54
2022/07/27 06:15:22;;;;;;;;;;;16.60;93.00;;;;;;5075929;28;19924;-58
2022/07/27 06:17:51;;;;;;;;;;;16.60;92.90;;;;;;5071969;28;19912;-58
2022/07/27 06:20:17;;;;;;;;;;;16.60;93.20;;;;;;5080351;28;19923;-57
2022/07/27 06:22:50;;;;;;;;;;;16.60;93.20;;;;;;5079468;28;20380;-50
2022/07/27 06:25:16;;;;;;;;;;;16.70;93.10;;;;;;5079020;28;20333;-52
2022/07/27 06:27:42;;;;;;;;;;;16.80;93.10;;;;;;5091410;28;19958;-53
2022/07/27 06:30:08;;;;;;;;;;;17.00;92.60;;;;;;5075451;28;19916;-54
2022/07/27 06:32:34;;;;;;;;;;;17.00;92.60;;;;;;5072592;28;19951;-57
2022/07/27 06:35:00;;;;;;;;;;;17.10;92.30;;;;;;5088262;28;19924;-54
2022/07/27 06:37:30;;;;;;;;;;;17.00;92.40;;;;;;5075968;28;19916;-56
2022/07/27 06:39:59;;;;;;;;;;;17.00;92.50;;;;;;5072667;28;19908;-55
2022/07/27 06:42:25;;;;;;;;;;;17.00;92.70;;;;;;5074647;28;19916;-54
2022/07/27 06:44:51;;;;;;;;;;;17.10;92.60;;;;;;5087768;28;19908;-55
2022/07/27 06:47:16;;;;;;;;;;;17.00;92.40;;;;;;5075654;28;20399;-54
2022/07/27 06:49:42;;;;;;;;;;;16.90;92.80;;;;;;5076454;28;19985;-52
2022/07/27 06:52:08;;;;;;;;;;;17.00;92.90;;;;;;5082408;28;19931;-56
2022/07/27 06:54:33;;;;;;;;;;;17.20;92.50;;;;;;5089429;28;19915;-56
2022/07/27 06:56:59;;;;;;;;;;;17.20;92.50;;;;;;5094004;28;19912;-57
2022/07/27 06:59:25;;;;;;;;;;;17.20;92.40;;;;;;5098210;22;19930;-52
2022/07/27 07:01:50;;;;;;;;;;;17.20;92.40;;;;;;5074074;28;20339;-55
2022/07/27 07:04:16;;;;;;;;;;;16.90;92.80;;;;;;5074636;28;19955;-50
2022/07/27 07:06:42;;;;;;;;;;;17.00;92.80;;;;;;5073607;28;19909;-53
2022/07/27 07:09:07;;;;;;;;;;;16.80;93.00;;;;;;5070993;28;19944;-49
2022/07/27 07:11:33;;;;;;;;;;;16.90;92.80;;;;;;5076748;28;19916;-53
2022/07/27 07:13:58;;;;;;;;;;;17.10;92.70;;;;;;5075158;28;20463;-50
2022/07/27 07:16:24;;;;;;;;;;;17.30;92.90;;;;;;5069247;28;19916;-50
2022/07/27 07:18:49;;;;;;;;;;;17.50;92.40;;;;;;5072330;28;20035;-48
2022/07/27 07:21:15;;;;;;;;;;;17.60;92.10;;;;;;5073029;28;19920;-51
2022/07/27 07:23:41;;;;;;;;;;;17.60;92.30;;;;;;5069541;28;19924;-51
2022/07/27 07:26:07;;;;;;;;;;;17.70;92.10;;;;;;5072470;28;19924;-48
2022/07/27 07:28:32;;;;;;;;;;;17.60;91.80;;;;;;5070363;28;19916;-51
2022/07/27 07:30:58;;;;;;;;;;;17.50;91.90;;;;;;5071977;28;20311;-53
2022/07/27 07:33:23;;;;;;;;;;;17.40;92.60;;;;;;5071932;28;19916;-50
2022/07/27 07:35:49;;;;;;;;;;;17.60;91.90;;;;;;5068770;28;19924;-49
2022/07/27 07:38:14;;;;;;;;;;;17.70;92.00;;;;;;5073275;28;19928;-48
2022/07/27 07:40:40;;;;;;;;;;;17.80;92.20;;;;;;5074379;28;19916;-53
2022/07/27 07:43:06;;;;;;;;;;;17.80;92.10;;;;;;5071930;28;20007;-53
2022/07/27 07:45:32;;;;;;;;;;;17.90;92.00;;;;;;5075105;28;19916;-56
2022/07/27 07:47:58;;;;;;;;;;;17.80;91.60;;;;;;5072776;28;19919;-55
2022/07/27 07:50:25;;;;;;;;;;;17.80;91.60;;;;;;5073285;28;19921;-54
2022/07/27 07:52:51;;;;;;;;;;;17.90;91.80;;;;;;5072950;28;19909;-50
2022/07/27 07:55:23;;;;;;;;;;;18.10;91.20;;;;;;5074201;28;19919;-51
2022/07/27 07:57:49;;;;;;;;;;;18.00;91.00;;;;;;5072087;28;20376;-53
2022/07/27 08:00:16;;;;;;;;;;;18.00;91.10;;;;;;5072937;28;19927;-51
2022/07/27 08:02:42;;;;;;;;;;;17.90;91.20;;;;;;5071501;28;20015;-53
2022/07/27 08:05:08;;;;;;;;;;;18.20;91.20;;;;;;5072807;28;19924;-52
2022/07/27 08:07:34;;;;;;;;;;;18.20;90.90;;;;;;5072915;28;19916;-53
2022/07/27 08:09:59;;;;;;;;;;;18.40;90.90;;;;;;5072807;28;19917;-51
2022/07/27 08:12:25;;;;;;;;;;;18.60;90.40;;;;;;5071546;28;20338;-51
2022/07/27 08:14:50;;;;;;;;;;;18.20;90.60;;;;;;5073294;28;20358;-51
2022/07/27 08:17:16;;;;;;;;;;;18.20;90.50;;;;;;5073757;28;19962;-52
2022/07/27 08:19:44;;;;;;;;;;;18.20;90.50;;;;;;5073841;28;19921;-55
2022/07/27 08:22:09;;;;;;;;;;;18.40;90.50;;;;;;5070401;28;19912;-48
2022/07/27 08:24:35;;;;;;;;;;;18.40;90.30;;;;;;5074229;28;20007;-46
2022/07/27 08:27:00;;;;;;;;;;;18.40;90.30;;;;;;5072911;28;20287;-54
2022/07/27 08:29:26;;;;;;;;;;;18.40;89.50;;;;;;5066186;28;19916;-50
2022/07/27 08:31:52;;;;;;;;;;;18.50;89.70;;;;;;5073137;28;19916;-53
2022/07/27 08:34:17;;;;;;;;;;;18.70;89.10;;;;;;5060604;28;19920;-50
2022/07/27 08:36:43;;;;;;;;;;;19.20;88.20;;;;;;5074264;28;19924;-50
2022/07/27 08:39:10;;;;;;;;;;;19.00;87.80;;;;;;5074236;28;20026;-52
2022/07/27 08:41:38;;;;;;;;;;;19.00;87.50;;;;;;5071036;28;19912;-51
2022/07/27 08:44:05;;;;;;;;;;;18.80;86.50;;;;;;5069891;28;19927;-53
2022/07/27 08:46:31;;;;;;;;;;;19.10;85.80;;;;;;5069861;28;20176;-52
2022/07/27 08:48:59;;;;;;;;;;;19.00;86.30;;;;;;5068766;28;19961;-54
2022/07/27 08:51:25;;;;;;;;;;;19.00;84.70;;;;;;5060576;28;19970;-52
2022/07/27 08:53:51;;;;;;;;;;;19.10;85.50;;;;;;5070095;28;19920;-50
2022/07/27 08:56:16;;;;;;;;;;;19.30;84.30;;;;;;5065397;28;19913;-54
2022/07/27 08:58:43;;;;;;;;;;;19.30;83.70;;;;;;5070073;28;19963;-53
2022/07/27 09:01:08;;;;;;;;;;;19.50;83.80;;;;;;5072480;28;20010;-51
2022/07/27 09:03:34;;;;;;;;;;;19.50;83.70;;;;;;5073695;28;19982;-53
2022/07/27 09:05:59;;;;;;;;;;;19.30;84.40;;;;;;5071987;28;19913;-54
2022/07/27 09:08:27;;;;;;;;;;;19.50;85.00;;;;;;5073641;28;20299;-50
2022/07/27 09:10:56;;;;;;;;;;;19.30;84.90;;;;;;5069717;28;19917;-55
2022/07/27 09:13:24;;;;;;;;;;;19.30;84.50;;;;;;5073025;28;19916;-55
2022/07/27 09:15:51;;;;;;;;;;;19.30;81.90;;;;;;5071041;28;19916;-53
2022/07/27 09:18:19;;;;;;;;;;;19.10;81.40;;;;;;5072292;28;19919;-57
2022/07/27 09:20:44;;;;;;;;;;;18.90;82.40;;;;;;5072598;28;19923;-55
2022/07/27 09:23:10;;;;;;;;;;;19.10;82.80;;;;;;5072259;28;19912;-55
2022/07/27 09:25:37;;;;;;;;;;;19.00;83.50;;;;;;5070416;28;20399;-53
2022/07/27 09:28:02;;;;;;;;;;;18.70;84.60;;;;;;5068712;28;20391;-57
2022/07/27 09:30:28;;;;;;;;;;;19.10;84.40;;;;;;5071700;28;19916;-54
2022/07/27 09:32:56;;;;;;;;;;;19.30;84.50;;;;;;5059208;28;20276;-58
2022/07/27 09:35:26;;;;;;;;;;;19.40;84.40;;;;;;5067082;28;19921;-54
2022/07/27 09:37:52;;;;;;;;;;;19.50;83.90;;;;;;5072619;28;19916;-54
2022/07/27 09:40:20;;;;;;;;;;;19.50;82.50;;;;;;5070319;28;21545;-54
2022/07/27 09:42:46;;;;;;;;;;;19.40;83.80;;;;;;5072490;28;19912;-54
2022/07/27 09:45:34;;;;;;;;;;;19.20;83.70;;;;;;5067344;28;19913;-56
2022/07/27 09:48:07;;;;;;;;;;;18.90;85.10;;;;;;5053479;28;19920;-56
2022/07/27 09:50:32;;;;;;;;;;;18.90;85.30;;;;;;5054899;28;19943;-56
2022/07/27 09:53:11;;;;;;;;;;;19.00;83.50;;;;;;5054315;28;19913;-57
2022/07/27 09:55:37;;;;;;;;;;;18.80;83.40;;;;;;5059873;28;19917;-54
2022/07/27 09:58:02;;;;;;;;;;;19.00;83.50;;;;;;5073005;28;19955;-54
2022/07/27 10:00:28;;;;;;;;;;;19.10;82.20;;;;;;5066541;28;19927;-57
2022/07/27 10:02:54;;;;;;;;;;;19.10;82.70;;;;;;5052294;28;19956;-58
2022/07/27 10:05:21;;;;;;;;;;;18.90;83.60;;;;;;5062297;28;20045;-57
2022/07/27 10:07:47;;;;;;;;;;;19.10;84.10;;;;;;5072836;28;19908;-56
2022/07/27 10:10:13;;;;;;;;;;;19.30;83.70;;;;;;5064540;28;19966;-52
2022/07/27 10:12:41;;;;;;;;;;;19.20;82.60;;;;;;5052572;28;19954;-57
2022/07/27 10:15:08;;;;;;;;;;;19.10;82.20;;;;;;5059997;28;19935;-58
2022/07/27 10:17:35;;;;;;;;;;;19.10;82.20;;;;;;5072738;28;19962;-51
2022/07/27 10:20:05;;;;;;;;;;;19.20;81.60;;;;;;5067096;28;19913;-55
2022/07/27 10:22:49;;;;;;;;;;;19.50;81.00;;;;;;5062483;28;20011;-55
2022/07/27 10:25:14;;;;;;;;;;;19.50;82.10;;;;;;5076961;28;19964;-52
2022/07/27 10:27:40;;;;;;;;;;;19.40;80.90;;;;;;5076485;28;20310;-54
2022/07/27 10:30:06;;;;;;;;;;;19.30;81.40;;;;;;5076043;28;19908;-55
2022/07/27 10:32:32;;;;;;;;;;;19.10;82.40;;;;;;5069871;28;19917;-56
2022/07/27 10:35:01;;;;;;;;;;;19.50;80.40;;;;;;5066464;28;19943;-55
2022/07/27 10:37:30;;;;;;;;;;;19.70;81.30;;;;;;5076151;28;19912;-53
2022/07/27 10:42:42;;;;;;;;;;;19.60;81.70;;;;;;5056624;28;20353;-54
2022/07/27 10:45:07;;;;;;;;;;;19.80;80.40;;;;;;5065280;28;20004;-57
2022/07/27 10:47:36;;;;;;;;;;;20.00;80.30;;;;;;5056791;28;20360;-56
2022/07/27 10:50:11;;;;;;;;;;;20.20;79.60;;;;;;5063538;28;19912;-57
2022/07/27 10:52:41;;;;;;;;;;;20.10;79.90;;;;;;5075284;28;19918;-56
2022/07/27 10:55:07;;;;;;;;;;;20.30;79.80;;;;;;5075035;28;19973;-54
2022/07/27 10:57:35;;;;;;;;;;;20.40;80.40;;;;;;5070595;28;19927;-55
2022/07/27 11:00:07;;;;;;;;;;;20.40;78.80;;;;;;5068821;28;20014;-55
2022/07/27 11:02:40;;;;;;;;;;;20.50;78.90;;;;;;5075103;28;19935;-57
2022/07/27 11:05:07;;;;;;;;;;;20.30;79.10;;;;;;5074136;28;20333;-53
2022/07/27 11:07:33;;;;;;;;;;;20.10;78.00;;;;;;5075539;28;20120;-55
2022/07/27 11:10:00;;;;;;;;;;;20.50;77.80;;;;;;5074790;28;19916;-54
2022/07/27 11:12:28;;;;;;;;;;;20.70;77.20;;;;;;5070076;28;19914;-55
2022/07/27 11:14:56;;;;;;;;;;;20.40;78.10;;;;;;5067992;28;20384;-56
2022/07/27 11:17:26;;;;;;;;;;;20.60;77.30;;;;;;5056300;28;19916;-50
2022/07/27 11:20:01;;;;;;;;;;;20.30;77.70;;;;;;5070626;28;20182;-52
2022/07/27 11:22:36;;;;;;;;;;;20.50;77.90;;;;;;5070645;28;19995;-53
2022/07/27 11:25:01;;;;;;;;;;;20.40;77.40;;;;;;5072478;28;19912;-51
2022/07/27 11:27:27;;;;;;;;;;;20.30;77.50;;;;;;5054218;28;20012;-48
2022/07/27 11:29:53;;;;;;;;;;;20.30;78.30;;;;;;5054622;28;19908;-49
2022/07/27 11:32:19;;;;;;;;;;;19.80;79.10;;;;;;5062161;28;20375;-51
2022/07/27 11:34:45;;;;;;;;;;;20.10;77.40;;;;;;5071798;28;19944;-54
2022/07/27 11:37:12;;;;;;;;;;;20.20;77.00;;;;;;5075001;28;19952;-54
2022/07/27 11:39:38;;;;;;;;;;;19.90;77.30;;;;;;5073085;28;19920;-53
2022/07/27 11:42:04;;;;;;;;;;;19.60;78.80;;;;;;5073256;28;19921;-51
2022/07/27 11:44:29;;;;;;;;;;;19.80;78.00;;;;;;5068664;28;20039;-53
2022/07/27 11:46:56;;;;;;;;;;;19.90;78.20;;;;;;5075774;28;19970;-53
2022/07/27 11:49:27;;;;;;;;;;;19.80;77.30;;;;;;5069126;28;19919;-49
2022/07/27 11:51:54;;;;;;;;;;;19.90;77.80;;;;;;5075808;28;19959;-55
2022/07/27 11:54:33;;;;;;;;;;;20.50;77.40;;;;;;5074647;28;19919;-51
2022/07/27 11:57:00;;;;;;;;;;;20.40;77.00;;;;;;5070596;28;20289;-48
2022/07/27 11:59:26;;;;;;;;;;;20.70;75.80;;;;;;5067954;28;20288;-52
2022/07/27 12:01:59;;;;;;;;;;;20.50;76.50;;;;;;5073710;28;19955;-49
2022/07/27 12:04:25;;;;;;;;;;;20.10;76.90;;;;;;5073438;28;20007;-53
2022/07/27 12:07:09;;;;;;;;;;;20.30;76.20;;;;;;5071518;28;19923;-55
2022/07/27 12:09:39;;;;;;;;;;;20.40;75.80;;;;;;5063878;28;20324;-51
2022/07/27 12:12:09;;;;;;;;;;;20.80;74.30;;;;;;5074232;28;20351;-48
2022/07/27 12:14:46;;;;;;;;;;;20.60;74.90;;;;;;5068877;28;19915;-48
2022/07/27 12:17:14;;;;;;;;;;;20.90;74.80;;;;;;5069717;28;19939;-51
2022/07/27 12:19:40;;;;;;;;;;;21.10;74.90;;;;;;5069440;28;19969;-51
2022/07/27 12:22:06;;;;;;;;;;;21.30;74.40;;;;;;5073908;28;20308;-51
2022/07/27 12:24:32;;;;;;;;;;;21.50;73.60;;;;;;5073923;28;19954;-49
2022/07/27 12:27:01;;;;;;;;;;;21.40;74.00;;;;;;5072830;28;19908;-57
2022/07/27 12:29:27;;;;;;;;;;;21.70;74.00;;;;;;5068967;28;19912;-51
2022/07/27 12:31:53;;;;;;;;;;;21.00;74.30;;;;;;5074250;28;19962;-50
2022/07/27 12:34:18;;;;;;;;;;;21.30;74.20;;;;;;5057826;28;19916;-55
2022/07/27 12:36:44;;;;;;;;;;;21.20;73.90;;;;;;5059855;28;19916;-51
2022/07/27 12:39:25;;;;;;;;;;;21.20;73.90;;;;;;5061360;28;19925;-59
2022/07/27 12:42:01;;;;;;;;;;;21.40;73.20;;;;;;5066296;28;19919;-51
2022/07/27 12:44:30;;;;;;;;;;;21.50;73.00;;;;;;5067483;28;19935;-49
2022/07/27 12:47:39;;;;;;;;;;;21.70;72.80;;;;;;5074270;28;19913;-50
2022/07/27 12:50:18;;;;;;;;;;;22.20;72.20;;;;;;5069980;28;19920;-53
2022/07/27 12:52:46;;;;;;;;;;;22.50;71.00;;;;;;5056728;28;19951;-51
2022/07/27 12:55:13;;;;;;;;;;;22.40;69.20;;;;;;5068955;28;20354;-58
2022/07/27 12:57:39;;;;;;;;;;;22.30;69.30;;;;;;5071833;28;19912;-51
2022/07/27 13:00:09;;;;;;;;;;;22.30;69.30;;;;;;5073410;28;19963;-47
2022/07/27 13:02:35;;;;;;;;;;;22.60;69.20;;;;;;5058121;28;20536;-51
2022/07/27 13:05:01;;;;;;;;;;;22.30;68.70;;;;;;5075830;28;20006;-51
2022/07/27 13:07:27;;;;;;;;;;;21.80;70.30;;;;;;5094632;28;20303;-47
2022/07/27 13:09:52;;;;;;;;;;;21.50;71.40;;;;;;5063826;28;19920;-53
2022/07/27 13:12:18;;;;;;;;;;;21.50;70.80;;;;;;5068142;28;20014;-56
2022/07/27 13:14:44;;;;;;;;;;;21.50;70.50;;;;;;5091827;28;19912;-51
2022/07/27 13:17:09;;;;;;;;;;;21.80;70.40;;;;;;5077894;28;19939;-51
2022/07/27 13:19:35;;;;;;;;;;;22.40;69.00;;;;;;5073294;28;20288;-53
2022/07/27 13:22:01;;;;;;;;;;;22.20;69.10;;;;;;5073318;28;19916;-51
2022/07/27 13:24:26;;;;;;;;;;;22.10;69.10;;;;;;5073264;28;20399;-54
2022/07/27 13:26:52;;;;;;;;;;;21.80;68.80;;;;;;5068448;28;19935;-48
2022/07/27 13:29:17;;;;;;;;;;;22.00;68.30;;;;;;5072231;28;20011;-47
2022/07/27 13:31:44;;;;;;;;;;;22.10;68.40;;;;;;5066082;28;19952;-48
2022/07/27 13:34:09;;;;;;;;;;;22.10;67.90;;;;;;5067603;28;19917;-52
2022/07/27 13:36:35;;;;;;;;;;;22.60;68.00;;;;;;5067885;28;19939;-52
2022/07/27 13:39:01;;;;;;;;;;;23.00;66.90;;;;;;5054888;28;19957;-52
2022/07/27 13:41:26;;;;;;;;;;;22.50;67.00;;;;;;5053000;28;20566;-52
2022/07/27 13:43:52;;;;;;;;;;;22.20;66.30;;;;;;5068453;28;19912;-50
2022/07/27 13:46:17;;;;;;;;;;;22.40;66.50;;;;;;5071688;28;19923;-51
2022/07/27 13:48:43;;;;;;;;;;;22.40;66.30;;;;;;5073371;28;20011;-57
2022/07/27 13:51:08;;;;;;;;;;;22.00;67.50;;;;;;5071479;28;19916;-56
2022/07/27 13:53:34;;;;;;;;;;;21.90;66.80;;;;;;5067929;28;20014;-53
2022/07/27 13:56:01;;;;;;;;;;;21.70;67.10;;;;;;5071372;28;19920;-54
2022/07/27 13:58:27;;;;;;;;;;;21.90;66.50;;;;;;5070174;28;19956;-56
2022/07/27 14:00:53;;;;;;;;;;;22.00;66.30;;;;;;5070626;28;19921;-53
2022/07/27 14:03:18;;;;;;;;;;;22.40;66.00;;;;;;5060145;28;19917;-57
2022/07/27 14:05:44;;;;;;;;;;;22.80;65.10;;;;;;5072812;28;19943;-50
2022/07/27 14:08:09;;;;;;;;;;;23.20;65.10;;;;;;5071264;28;19920;-53
2022/07/27 14:10:41;;;;;;;;;;;23.50;64.70;;;;;;5072401;28;19916;-57
2022/07/27 14:13:11;;;;;;;;;;;23.30;64.20;;;;;;5060860;28;19916;-52
2022/07/27 14:15:38;;;;;;;;;;;23.10;65.10;;;;;;5052131;28;19909;-54
2022/07/27 14:18:04;;;;;;;;;;;23.50;64.50;;;;;;5067737;28;19916;-54
2022/07/27 14:20:29;;;;;;;;;;;23.50;63.60;;;;;;5070983;28;20290;-58
2022/07/27 14:22:55;;;;;;;;;;;23.80;63.00;;;;;;5067539;28;19931;-52
2022/07/27 14:25:20;;;;;;;;;;;23.50;63.50;;;;;;5071968;28;19912;-51